createdAt,value
2018-06-27T00:01:54.129Z,15.80
2018-06-27T00:04:22.266Z,18.90
2018-06-27T00:06:50.296Z,16.00
2018-06-27T00:09:18.314Z,12.07
2018-06-27T00:11:46.400Z,15.75
2018-06-27T00:14:14.418Z,16.10
2018-06-27T00:16:42.468Z,15.27
2018-06-27T00:19:10.487Z,20.90
2018-06-27T00:21:38.913Z,12.65
2018-06-27T00:24:06.929Z,14.90
2018-06-27T00:26:34.965Z,14.60
2018-06-27T00:29:03.045Z,14.33
2018-06-27T00:31:31.065Z,11.18
2018-06-27T00:33:59.131Z,15.83
2018-06-27T00:36:27.184Z,19.55
2018-06-27T00:38:55.217Z,12.50
2018-06-27T00:41:23.293Z,16.42
2018-06-27T00:43:51.753Z,16.32
2018-06-27T00:46:19.791Z,14.58
2018-06-27T00:48:47.908Z,17.93
2018-06-27T00:51:15.981Z,14.13
2018-06-27T00:53:49.456Z,13.43
2018-06-27T00:56:17.797Z,16.70
2018-06-27T00:58:46.273Z,17.33
2018-06-27T01:01:14.297Z,16.42
2018-06-27T01:03:42.549Z,26.85
2018-06-27T01:06:10.607Z,14.78
2018-06-27T01:08:38.660Z,12.25
2018-06-27T01:11:07.088Z,13.35
2018-06-27T01:13:35.129Z,12.82
2018-06-27T01:16:03.218Z,19.00
2018-06-27T01:18:31.248Z,17.48
2018-06-27T01:20:59.284Z,17.40
2018-06-27T01:23:27.289Z,13.98
2018-06-27T01:25:55.361Z,13.43
2018-06-27T01:28:23.392Z,15.63
2018-06-27T01:30:51.454Z,10.30
2018-06-27T01:33:19.898Z,13.15
2018-06-27T01:35:47.985Z,15.25
2018-06-27T01:38:16.061Z,13.25
2018-06-27T01:40:44.168Z,15.08
2018-06-27T01:43:12.589Z,14.93
2018-06-27T01:45:40.605Z,16.30
2018-06-27T01:48:08.646Z,16.90
2018-06-27T01:50:36.866Z,15.13
2018-06-27T01:53:04.921Z,10.45
2018-06-27T01:55:33.089Z,15.93
2018-06-27T01:58:01.341Z,12.95
2018-06-27T02:00:29.437Z,20.35
2018-06-27T02:02:57.506Z,18.40
2018-06-27T02:05:25.513Z,14.25
2018-06-27T02:07:53.576Z,11.33
2018-06-27T02:10:22.052Z,15.75
2018-06-27T02:12:50.109Z,14.20
2018-06-27T02:15:18.177Z,11.73
2018-06-27T02:17:46.233Z,17.75
2018-06-27T02:20:14.305Z,16.42
2018-06-27T02:22:42.430Z,14.90
2018-06-27T02:25:10.854Z,12.55
2018-06-27T02:27:38.877Z,14.58
2018-06-27T02:30:06.913Z,14.00
2018-06-27T02:32:35.273Z,21.52
2018-06-27T02:35:03.296Z,16.50
2018-06-27T02:37:31.328Z,15.65
2018-06-27T02:39:59.694Z,13.78
2018-06-27T02:42:27.712Z,17.10
2018-06-27T02:44:55.782Z,14.20
2018-06-27T02:47:24.214Z,17.73
2018-06-27T02:49:52.318Z,18.65
2018-06-27T02:52:20.361Z,17.15
2018-06-27T02:54:48.729Z,18.02
2018-06-27T02:57:16.740Z,16.75
2018-06-27T02:59:44.758Z,15.75
2018-06-27T03:02:12.813Z,23.98
2018-06-27T03:04:40.869Z,15.50
2018-06-27T03:07:08.926Z,19.15
2018-06-27T03:09:36.965Z,15.70
2018-06-27T03:12:04.989Z,17.27
2018-06-27T03:14:33.010Z,17.17
2018-06-27T03:17:01.115Z,20.50
2018-06-27T03:19:29.185Z,15.32
2018-06-27T03:21:57.206Z,19.07
2018-06-27T03:24:25.278Z,21.65
2018-06-27T03:26:53.304Z,18.57
2018-06-27T03:29:21.360Z,13.75
2018-06-27T03:31:49.999Z,15.65
2018-06-27T03:34:18.026Z,17.67
2018-06-27T03:36:46.022Z,16.77
2018-06-27T03:39:14.347Z,21.17
2018-06-27T03:41:42.383Z,15.38
2018-06-27T03:44:10.481Z,21.07
2018-06-27T03:46:38.528Z,17.80
2018-06-27T03:49:06.645Z,26.85
2018-06-27T03:51:34.656Z,16.97
2018-06-27T03:54:02.737Z,17.10
2018-06-27T03:56:30.759Z,21.95
2018-06-27T03:58:58.858Z,16.05
2018-06-27T04:01:26.886Z,16.65
2018-06-27T04:03:54.932Z,19.12
2018-06-27T04:06:22.977Z,15.50
2018-06-27T04:08:51.414Z,13.80
2018-06-27T04:11:19.489Z,18.80
2018-06-27T04:13:47.556Z,20.45
2018-06-27T04:16:15.597Z,18.07
2018-06-27T04:18:43.607Z,17.40
2018-06-27T04:21:11.628Z,17.62
2018-06-27T04:23:40.425Z,16.40
2018-06-27T04:26:08.468Z,21.17
2018-06-27T04:28:36.493Z,15.05
2018-06-27T04:31:04.540Z,17.40
2018-06-27T04:33:32.545Z,25.23
2018-06-27T04:36:00.600Z,15.72
2018-06-27T04:38:28.668Z,16.20
2018-06-27T04:40:56.689Z,16.65
2018-06-27T04:43:24.801Z,16.48
2018-06-27T04:45:52.901Z,24.27
2018-06-27T04:48:21.015Z,19.00
2018-06-27T04:50:49.042Z,15.68
2018-06-27T04:53:17.082Z,16.60
2018-06-27T04:55:45.095Z,16.97
2018-06-27T04:58:13.149Z,19.98
2018-06-27T05:00:41.490Z,19.42
2018-06-27T05:03:09.508Z,20.45
2018-06-27T05:05:37.570Z,19.37
2018-06-27T05:08:05.604Z,23.62
2018-06-27T05:10:33.681Z,17.67
2018-06-27T05:13:01.747Z,20.25
2018-06-27T05:15:29.772Z,15.72
2018-06-27T05:17:57.815Z,18.90
2018-06-27T05:20:25.853Z,17.52
2018-06-27T05:22:54.469Z,14.20
2018-06-27T05:25:22.517Z,21.80
2018-06-27T05:27:50.631Z,17.55
2018-06-27T05:30:18.726Z,18.62
2018-06-27T05:32:46.798Z,19.17
2018-06-27T05:35:14.837Z,15.83
2018-06-27T05:37:42.969Z,17.95
2018-06-27T05:40:11.542Z,15.05
2018-06-27T05:42:39.561Z,13.53
2018-06-27T05:45:07.644Z,18.50
2018-06-27T05:47:35.704Z,19.98
2018-06-27T05:50:04.156Z,18.12
2018-06-27T05:52:32.495Z,16.42
2018-06-27T05:55:05.969Z,15.90
2018-06-27T05:57:34.032Z,17.02
2018-06-27T06:00:02.354Z,14.93
2018-06-27T06:02:30.498Z,11.80
2018-06-27T06:04:59.007Z,12.87
2018-06-27T06:07:27.057Z,14.38
2018-06-27T06:09:55.549Z,13.63
2018-06-27T06:12:24.333Z,18.20
2018-06-27T06:14:52.741Z,19.57
2018-06-27T06:17:20.955Z,13.18
2018-06-27T06:19:49.096Z,13.67
2018-06-27T06:22:17.073Z,17.37
2018-06-27T06:24:46.008Z,20.97
2018-06-27T06:27:15.237Z,17.13
2018-06-27T06:29:44.480Z,15.27
2018-06-27T06:32:12.922Z,14.70
2018-06-27T06:34:41.272Z,16.73
2018-06-27T06:37:09.893Z,17.30
2018-06-27T06:39:37.927Z,17.13
2018-06-27T06:42:06.309Z,20.80
2018-06-27T06:44:34.832Z,16.13
2018-06-27T06:47:04.532Z,15.87
2018-06-27T06:49:33.100Z,18.43
2018-06-27T06:52:01.169Z,17.73
2018-06-27T06:54:29.190Z,20.57
2018-06-27T06:56:57.266Z,21.77
2018-06-27T06:59:25.362Z,17.90
2018-06-27T07:01:53.388Z,20.40
2018-06-27T07:04:21.451Z,18.50
2018-06-27T07:06:49.801Z,23.73
2018-06-27T07:09:17.837Z,15.60
2018-06-27T07:11:46.436Z,15.53
2018-06-27T07:14:14.624Z,17.73
2018-06-27T07:16:43.789Z,21.37
2018-06-27T07:19:11.922Z,19.07
2018-06-27T07:21:39.964Z,17.03
2018-06-27T07:24:08.223Z,16.90
2018-06-27T07:26:36.265Z,15.87
2018-06-27T07:29:04.292Z,14.20
2018-06-27T07:31:32.507Z,13.27
2018-06-27T07:34:01.588Z,12.40
2018-06-27T07:36:31.053Z,13.70
2018-06-27T07:39:04.508Z,14.93
2018-06-27T07:41:33.314Z,21.87
2018-06-27T07:44:02.158Z,15.83
2018-06-27T07:46:32.723Z,20.33
2018-06-27T07:49:01.222Z,16.20
2018-06-27T07:51:31.041Z,16.60
2018-06-27T07:53:59.747Z,19.00
2018-06-27T07:56:28.242Z,12.10
2018-06-27T07:58:56.477Z,14.43
2018-06-27T08:01:25.114Z,16.97
2018-06-27T08:03:53.428Z,17.17
2018-06-27T08:06:21.496Z,17.13
2018-06-27T08:08:49.510Z,16.40
2018-06-27T08:11:17.534Z,16.57
2018-06-27T08:13:45.607Z,17.30
2018-06-27T08:16:13.629Z,14.83
2018-06-27T08:18:43.756Z,14.77
2018-06-27T08:21:11.819Z,15.30
2018-06-27T08:23:39.925Z,16.90
2018-06-27T08:26:08.013Z,14.77
2018-06-27T08:28:36.029Z,18.53
2018-06-27T08:31:04.036Z,16.20
2018-06-27T08:33:32.122Z,17.13
2018-06-27T08:36:00.182Z,13.43
2018-06-27T08:38:28.197Z,15.00
2018-06-27T08:40:56.243Z,16.97
2018-06-27T08:43:24.356Z,16.83
2018-06-27T08:45:52.538Z,19.73
2018-06-27T08:48:20.600Z,13.37
2018-06-27T08:50:48.705Z,17.17
2018-06-27T08:53:16.711Z,13.70
2018-06-27T08:55:44.773Z,15.87
2018-06-27T08:58:12.860Z,15.47
2018-06-27T09:00:40.937Z,13.67
2018-06-27T09:03:08.971Z,17.97
2018-06-27T09:05:37.071Z,15.60
2018-06-27T09:08:05.110Z,17.07
2018-06-27T09:10:33.137Z,13.83
2018-06-27T09:13:01.225Z,15.23
2018-06-27T09:15:29.229Z,11.47
2018-06-27T09:17:57.321Z,16.90
2018-06-27T09:20:25.699Z,11.10
2018-06-27T09:22:53.789Z,15.00
2018-06-27T09:25:21.869Z,10.40
2018-06-27T09:27:49.917Z,11.43
2018-06-27T09:30:17.961Z,14.50
2018-06-27T09:32:45.976Z,13.73
2018-06-27T09:35:14.261Z,15.10
2018-06-27T09:37:42.381Z,13.40
2018-06-27T09:40:10.414Z,9.90
2018-06-27T09:42:38.487Z,14.40
2018-06-27T09:45:06.521Z,11.27
2018-06-27T09:47:34.601Z,12.33
2018-06-27T09:50:02.683Z,11.23
2018-06-27T09:52:30.747Z,13.83
2018-06-27T09:54:58.784Z,11.77
2018-06-27T09:57:26.822Z,12.80
2018-06-27T09:59:54.845Z,11.77
2018-06-27T10:02:22.917Z,13.30
2018-06-27T10:04:51.280Z,14.70
2018-06-27T10:07:19.590Z,18.97
2018-06-27T10:09:47.649Z,11.57
2018-06-27T10:12:15.734Z,12.03
2018-06-27T10:14:43.771Z,17.13
2018-06-27T10:17:11.823Z,14.00
2018-06-27T10:19:39.894Z,14.60
2018-06-27T10:22:07.918Z,14.40
2018-06-27T10:24:35.990Z,13.10
2018-06-27T10:27:04.140Z,12.80
2018-06-27T10:29:32.194Z,15.70
2018-06-27T10:32:00.247Z,14.50
2018-06-27T10:34:28.331Z,11.63
2018-06-27T10:36:56.510Z,11.23
2018-06-27T10:39:24.530Z,11.73
2018-06-27T10:41:52.969Z,12.73
2018-06-27T10:44:21.030Z,13.00
2018-06-27T10:46:49.059Z,19.30
2018-06-27T10:49:17.457Z,13.13
2018-06-27T10:51:45.490Z,11.80
2018-06-27T10:54:13.570Z,13.50
2018-06-27T10:56:41.593Z,12.53
2018-06-27T10:59:09.635Z,17.50
2018-06-27T11:01:37.728Z,14.90
2018-06-27T11:04:06.054Z,14.97
2018-06-27T11:06:34.130Z,13.37
2018-06-27T11:09:02.173Z,12.40
2018-06-27T11:11:30.632Z,13.03
2018-06-27T11:13:58.693Z,14.20
2018-06-27T11:16:26.758Z,14.07
2018-06-27T11:18:54.777Z,14.10
2018-06-27T11:21:22.842Z,14.23
2018-06-27T11:23:50.896Z,13.90
2018-06-27T11:26:18.931Z,15.07
2018-06-27T11:28:46.982Z,12.20
2018-06-27T11:31:15.010Z,15.20
2018-06-27T11:33:43.154Z,18.63
2018-06-27T11:36:11.221Z,17.83
2018-06-27T11:38:39.395Z,15.50
2018-06-27T11:41:07.393Z,16.10
2018-06-27T11:43:35.398Z,16.00
2018-06-27T11:46:03.458Z,16.67
2018-06-27T11:48:31.547Z,15.80
2018-06-27T11:50:59.698Z,14.83
2018-06-27T11:53:27.721Z,20.27
2018-06-27T11:55:55.763Z,16.40
2018-06-27T11:58:23.869Z,16.53
2018-06-27T12:00:52.041Z,23.70
2018-06-27T12:03:20.201Z,17.70
2018-06-27T12:05:48.232Z,15.73
2018-06-27T12:08:16.249Z,16.60
2018-06-27T12:10:44.319Z,19.80
2018-06-27T12:13:12.432Z,16.17
2018-06-27T12:15:40.530Z,20.03
2018-06-27T12:18:08.621Z,18.73
2018-06-27T12:20:36.743Z,18.43
2018-06-27T12:23:04.816Z,16.30
2018-06-27T12:28:08.014Z,21.60
2018-06-27T12:30:36.122Z,21.47
2018-06-27T12:33:04.162Z,17.47
2018-06-27T12:35:32.193Z,20.10
2018-06-27T12:38:07.141Z,17.13
2018-06-27T12:40:35.171Z,23.90
2018-06-27T12:43:03.203Z,18.43
2018-06-27T12:45:31.665Z,19.90
2018-06-27T12:47:59.707Z,20.30
2018-06-27T12:50:27.840Z,18.87
2018-06-27T12:52:55.875Z,20.63
2018-06-27T12:55:23.897Z,25.00
2018-06-27T12:57:51.917Z,27.97
2018-06-27T13:00:20.900Z,22.73
2018-06-27T13:02:49.241Z,21.00
2018-06-27T13:05:17.317Z,23.80
2018-06-27T13:07:45.407Z,23.77
2018-06-27T13:10:13.437Z,18.30
2018-06-27T13:12:41.533Z,23.30
2018-06-27T13:15:09.575Z,22.20
2018-06-27T13:17:37.601Z,17.43
2018-06-27T13:20:05.964Z,23.27
2018-06-27T13:22:34.047Z,22.40
2018-06-27T13:25:02.065Z,22.37
2018-06-27T13:27:30.085Z,19.80
2018-06-27T13:29:58.176Z,25.47
2018-06-27T13:32:26.270Z,27.00
2018-06-27T13:34:54.392Z,23.20
2018-06-27T13:37:22.417Z,20.70
2018-06-27T13:39:50.574Z,22.67
2018-06-27T13:42:18.667Z,26.40
2018-06-27T13:44:47.047Z,20.17
2018-06-27T13:47:15.223Z,19.57
2018-06-27T13:49:43.330Z,23.50
2018-06-27T13:52:11.683Z,21.43
2018-06-27T13:54:39.699Z,20.10
2018-06-27T13:57:07.769Z,22.60
2018-06-27T13:59:36.193Z,23.00
2018-06-27T14:02:04.254Z,24.03
2018-06-27T14:04:32.354Z,27.93
2018-06-27T14:07:00.440Z,20.50
2018-06-27T14:09:28.448Z,20.47
2018-06-27T14:11:56.513Z,23.40
2018-06-27T14:14:24.882Z,24.23
2018-06-27T14:16:52.925Z,20.40
2018-06-27T14:19:20.986Z,19.43
2018-06-27T14:21:49.067Z,19.73
2018-06-27T14:24:17.245Z,19.80
2018-06-27T14:26:46.076Z,23.43
2018-06-27T14:29:14.129Z,21.93
2018-06-27T14:31:42.216Z,20.10
2018-06-27T14:34:10.333Z,22.40
2018-06-27T14:36:38.377Z,21.87
2018-06-27T14:39:07.305Z,25.57
2018-06-27T14:41:35.417Z,22.70
2018-06-27T14:44:03.605Z,21.50
2018-06-27T14:46:31.616Z,20.87
2018-06-27T14:48:59.607Z,20.37
2018-06-27T14:51:27.746Z,25.83
2018-06-27T14:53:55.806Z,20.80
2018-06-27T14:56:23.863Z,20.43
2018-06-27T14:58:51.981Z,25.17
2018-06-27T15:01:20.047Z,24.13
2018-06-27T15:03:48.113Z,22.63
2018-06-27T15:06:16.433Z,25.73
2018-06-27T15:08:44.854Z,25.90
2018-06-27T15:11:13.065Z,24.03
2018-06-27T15:13:41.310Z,23.77
2018-06-27T15:16:09.398Z,24.73
2018-06-27T15:18:37.755Z,20.40
2018-06-27T15:21:05.805Z,18.23
2018-06-27T15:23:33.892Z,18.43
2018-06-27T15:26:01.881Z,21.13
2018-06-27T15:28:29.931Z,22.20
2018-06-27T15:30:57.965Z,19.43
2018-06-27T15:33:26.009Z,22.17
2018-06-27T15:35:54.068Z,19.20
2018-06-27T15:38:22.148Z,17.53
2018-06-27T15:40:50.220Z,20.57
2018-06-27T15:43:18.305Z,20.17
2018-06-27T15:45:46.381Z,18.13
2018-06-27T15:48:14.513Z,19.37
2018-06-27T15:50:42.588Z,19.60
2018-06-27T15:53:10.646Z,18.67
2018-06-27T15:55:38.687Z,17.83
2018-06-27T15:58:06.731Z,21.27
2018-06-27T16:00:34.823Z,18.93
2018-06-27T16:03:02.944Z,24.40
2018-06-27T16:05:31.009Z,22.97
2018-06-27T16:07:59.075Z,19.53
2018-06-27T16:10:27.089Z,19.63
2018-06-27T16:12:55.239Z,18.70
2018-06-27T16:15:23.294Z,20.23
2018-06-27T16:17:51.378Z,19.77
2018-06-27T16:20:19.469Z,18.53
2018-06-27T16:22:47.534Z,20.93
2018-06-27T16:25:15.550Z,24.70
2018-06-27T16:27:43.612Z,21.90
2018-06-27T16:30:11.834Z,20.43
2018-06-27T16:32:39.954Z,18.33
2018-06-27T16:35:08.054Z,17.33
2018-06-27T16:37:36.117Z,20.53
2018-06-27T16:40:04.260Z,18.80
2018-06-27T16:42:32.321Z,17.73
2018-06-27T16:45:00.491Z,20.23
2018-06-27T16:47:28.574Z,18.73
2018-06-27T16:49:56.629Z,16.77
2018-06-27T16:52:24.642Z,16.37
2018-06-27T16:54:52.788Z,17.30
2018-06-27T16:57:20.837Z,14.87
2018-06-27T16:59:48.916Z,19.33
2018-06-27T17:02:16.983Z,15.50
2018-06-27T17:04:45.397Z,15.70
2018-06-27T17:07:13.407Z,15.13
2018-06-27T17:09:41.417Z,17.40
2018-06-27T17:12:09.498Z,15.30
2018-06-27T17:14:37.576Z,14.67
2018-06-27T17:17:05.717Z,16.90
2018-06-27T17:19:33.889Z,15.07
2018-06-27T17:22:01.941Z,15.70
2018-06-27T17:24:29.967Z,13.13
2018-06-27T17:26:58.342Z,12.70
2018-06-27T17:29:26.350Z,12.30
2018-06-27T17:31:54.376Z,12.83
2018-06-27T17:34:22.534Z,13.90
2018-06-27T17:36:50.646Z,12.70
2018-06-27T17:39:18.662Z,14.63
2018-06-27T17:41:47.042Z,15.00
2018-06-27T17:44:15.130Z,13.27
2018-06-27T17:46:43.206Z,13.63
2018-06-27T17:49:11.392Z,13.70
2018-06-27T17:51:39.417Z,17.50
2018-06-27T17:54:07.980Z,11.90
2018-06-27T17:56:36.448Z,17.93
2018-06-27T17:59:04.520Z,15.33
2018-06-27T18:01:32.729Z,14.10
2018-06-27T18:04:00.740Z,12.90
2018-06-27T18:06:28.808Z,12.53
2018-06-27T18:08:56.994Z,19.30
2018-06-27T18:11:24.931Z,15.00
2018-06-27T18:13:52.950Z,19.13
2018-06-27T18:16:21.069Z,13.60
2018-06-27T18:18:49.130Z,16.23
2018-06-27T18:21:17.205Z,12.83
2018-06-27T18:23:45.335Z,14.60
2018-06-27T18:26:13.414Z,13.43
2018-06-27T18:28:41.462Z,13.90
2018-06-27T18:31:09.526Z,14.60
2018-06-27T18:33:37.662Z,13.27
2018-06-27T18:36:05.758Z,15.03
2018-06-27T18:38:33.821Z,16.80
2018-06-27T18:41:01.922Z,13.60
2018-06-27T18:43:29.933Z,15.07
2018-06-27T18:45:57.999Z,14.47
2018-06-27T18:48:26.506Z,12.20
2018-06-27T18:50:54.526Z,14.20
2018-06-27T18:53:22.618Z,12.47
2018-06-27T18:55:51.129Z,15.07
2018-06-27T18:58:19.160Z,15.97
2018-06-27T19:00:47.174Z,15.67
2018-06-27T19:03:15.271Z,17.83
2018-06-27T19:05:43.321Z,17.00
2018-06-27T19:08:11.481Z,15.73
2018-06-27T19:10:39.472Z,15.50
2018-06-27T19:13:07.510Z,15.37
2018-06-27T19:15:35.557Z,15.87
2018-06-27T19:18:03.985Z,22.07
2018-06-27T19:20:32.064Z,15.43
2018-06-27T19:23:00.221Z,15.30
2018-06-27T19:25:28.322Z,16.87
2018-06-27T19:27:56.382Z,17.00
2018-06-27T19:30:24.477Z,17.53
2018-06-27T19:32:52.633Z,18.90
2018-06-27T19:35:20.791Z,18.70
2018-06-27T19:37:48.872Z,20.73
2018-06-27T19:40:16.915Z,18.80
2018-06-27T19:42:45.010Z,21.43
2018-06-27T19:45:13.106Z,20.47
2018-06-27T19:47:41.155Z,24.53
2018-06-27T19:50:09.247Z,24.83
2018-06-27T19:52:37.428Z,20.30
2018-06-27T19:55:05.546Z,21.10
2018-06-27T19:57:33.663Z,21.77
2018-06-27T20:00:01.656Z,24.80
2018-06-27T20:02:29.809Z,21.17
2018-06-27T20:04:57.809Z,27.30
2018-06-27T20:07:25.904Z,21.30
2018-06-27T20:09:54.274Z,21.87
2018-06-27T20:12:22.316Z,21.93
2018-06-27T20:14:50.398Z,22.73
2018-06-27T20:17:18.490Z,23.43
2018-06-27T20:19:46.581Z,27.93
2018-06-27T20:22:14.659Z,21.03
2018-06-27T20:24:42.677Z,22.80
2018-06-27T20:27:10.714Z,20.77
2018-06-27T20:29:38.730Z,27.30
2018-06-27T20:32:06.843Z,23.07
2018-06-27T20:34:34.860Z,20.30
2018-06-27T20:37:02.865Z,26.10
2018-06-27T20:39:30.902Z,23.60
2018-06-27T20:41:58.949Z,20.73
2018-06-27T20:44:26.997Z,25.73
2018-06-27T20:46:55.089Z,24.90
2018-06-27T20:49:23.203Z,22.13
2018-06-27T20:51:51.220Z,19.57
2018-06-27T20:54:19.364Z,23.70
2018-06-27T20:56:47.375Z,27.57
2018-06-27T20:59:15.400Z,20.60
2018-06-27T21:01:43.797Z,25.33
2018-06-27T21:04:11.877Z,27.23
2018-06-27T21:06:39.913Z,26.23
2018-06-27T21:09:10.181Z,22.17
2018-06-27T21:11:38.217Z,28.43
2018-06-27T21:14:06.313Z,22.70
2018-06-27T21:16:34.493Z,25.10
2018-06-27T21:19:02.623Z,21.97
2018-06-27T21:21:30.705Z,26.27
2018-06-27T21:23:58.741Z,30.40
2018-06-27T21:26:26.754Z,25.17
2018-06-27T21:28:54.820Z,25.60
2018-06-27T21:31:22.899Z,26.73
2018-06-27T21:33:50.935Z,24.60
2018-06-27T21:36:19.020Z,20.27
2018-06-27T21:38:47.056Z,23.17
2018-06-27T21:41:15.091Z,24.40
2018-06-27T21:43:43.108Z,22.97
2018-06-27T21:46:11.140Z,31.23
2018-06-27T21:48:39.157Z,21.87
2018-06-27T21:51:07.223Z,24.60
2018-06-27T21:53:35.363Z,22.00
2018-06-27T21:56:03.409Z,25.83
2018-06-27T21:58:31.482Z,21.20
2018-06-27T22:00:59.513Z,24.60
2018-06-27T22:03:27.577Z,21.40
2018-06-27T22:05:55.602Z,23.10
2018-06-27T22:08:23.734Z,24.37
2018-06-27T22:10:51.797Z,28.87
2018-06-27T22:13:20.153Z,23.77
2018-06-27T22:15:48.359Z,27.80
2018-06-27T22:18:16.798Z,22.73
2018-06-27T22:20:44.857Z,21.67
2018-06-27T22:23:12.965Z,27.87
2018-06-27T22:25:41.042Z,22.60
2018-06-27T22:28:09.081Z,31.43
2018-06-27T22:30:37.125Z,22.73
2018-06-27T22:33:06.256Z,21.87
2018-06-27T22:35:34.316Z,23.93
2018-06-27T22:38:02.456Z,20.73
2018-06-27T22:40:30.618Z,32.73
2018-06-27T22:42:58.766Z,26.23
2018-06-27T22:45:27.241Z,21.03
2018-06-27T22:47:55.272Z,20.13
2018-06-27T22:50:23.290Z,20.33
2018-06-27T22:52:51.362Z,22.67
2018-06-27T22:55:19.441Z,24.70
2018-06-27T22:57:47.539Z,20.03
2018-06-27T23:00:15.700Z,24.50
2018-06-27T23:02:43.809Z,25.67
2018-06-27T23:05:11.835Z,27.53
2018-06-27T23:07:40.193Z,23.60
2018-06-27T23:10:08.197Z,25.93
2018-06-27T23:12:36.869Z,19.30
2018-06-27T23:15:05.087Z,28.00
2018-06-27T23:17:33.178Z,23.90
2018-06-27T23:20:01.265Z,24.00
2018-06-27T23:22:34.844Z,22.77
2018-06-27T23:25:02.864Z,22.23
2018-06-27T23:27:30.883Z,24.57
2018-06-27T23:29:58.922Z,21.20
2018-06-27T23:32:26.945Z,26.27
2018-06-27T23:34:55.297Z,26.17
2018-06-27T23:37:23.343Z,23.70
2018-06-27T23:39:51.418Z,25.23
2018-06-27T23:42:19.445Z,20.60
2018-06-27T23:44:47.619Z,25.20
2018-06-27T23:47:15.729Z,22.73
2018-06-27T23:49:43.832Z,25.40
2018-06-27T23:52:11.846Z,20.33
2018-06-27T23:54:39.937Z,19.97
2018-06-27T23:57:08.065Z,21.63
2018-06-27T23:59:36.137Z,22.77
